EIN64 EGPH-EICK
Flight info
| Callsign | EIN64 |
|---|---|
| Flight time | 0h 57m |
| Altitude | 38000 |
| Route | GOSAM DCT TRN DCT NELBO DCT NIMAT DCT DUB DCT TISMO TISMO1R |
| Aircraft | A20N/M-SDE2E3FGHIRWXY/LB1 |
Departure
| Time | 2026-04-24 14:14 |
|---|---|
| Airport | Edinburgh Airport (EGPH) |
Arrival
| Time | 2026-04-24 15:12 |
|---|---|
| Airport | Cork International Airport (EICK) |
| Time | Latitude | Longitude | Altitude | Speed | Heading |
|---|---|---|---|---|---|
| 2026-04-24 13:46 | 55.94939 | -3.36355 | 105 ft | 0 kts | 148° |
| 2026-04-24 14:01 | 55.94948 | -3.36365 | 104 ft | 2 kts | 147° |
| 2026-04-24 14:01 | 55.94963 | -3.36382 | 103 ft | 3 kts | 143° |
| 2026-04-24 14:01 | 55.94979 | -3.36404 | 106 ft | 3 kts | 150° |
| 2026-04-24 14:02 | 55.95008 | -3.36404 | 107 ft | 5 kts | 218° |
| 2026-04-24 14:02 | 55.95015 | -3.36394 | 105 ft | 0 kts | 237° |
| 2026-04-24 14:06 | 55.95014 | -3.36398 | 106 ft | 3 kts | 237° |
| 2026-04-24 14:06 | 55.94983 | -3.36484 | 106 ft | 14 kts | 238° |
| 2026-04-24 14:07 | 55.94932 | -3.36633 | 106 ft | 14 kts | 239° |
| 2026-04-24 14:07 | 55.94908 | -3.36708 | 106 ft | 2 kts | 239° |
| 2026-04-24 14:07 | 55.94894 | -3.36765 | 105 ft | 7 kts | 263° |
| 2026-04-24 14:07 | 55.94923 | -3.36848 | 105 ft | 9 kts | 292° |
| 2026-04-24 14:08 | 55.94899 | -3.36973 | 104 ft | 13 kts | 238° |
| 2026-04-24 14:08 | 55.94844 | -3.37129 | 104 ft | 17 kts | 237° |
| 2026-04-24 14:08 | 55.94777 | -3.37330 | 107 ft | 20 kts | 237° |
| 2026-04-24 14:08 | 55.94705 | -3.37546 | 110 ft | 21 kts | 240° |
| 2026-04-24 14:09 | 55.94639 | -3.37735 | 111 ft | 15 kts | 238° |
| 2026-04-24 14:09 | 55.94575 | -3.37925 | 110 ft | 19 kts | 242° |
| 2026-04-24 14:09 | 55.94536 | -3.38053 | 110 ft | 14 kts | 239° |
| 2026-04-24 14:09 | 55.94473 | -3.38228 | 109 ft | 19 kts | 238° |
| 2026-04-24 14:10 | 55.94407 | -3.38419 | 111 ft | 14 kts | 238° |
| 2026-04-24 14:10 | 55.94352 | -3.38580 | 115 ft | 16 kts | 239° |
| 2026-04-24 14:10 | 55.94297 | -3.38753 | 115 ft | 13 kts | 239° |
| 2026-04-24 14:10 | 55.94310 | -3.38892 | 117 ft | 12 kts | 327° |
| 2026-04-24 14:11 | 55.94323 | -3.38906 | 120 ft | 0 kts | 329° |
| 2026-04-24 14:12 | 55.94352 | -3.38937 | 116 ft | 9 kts | 329° |
| 2026-04-24 14:12 | 55.94420 | -3.38943 | 115 ft | 12 kts | 38° |
| 2026-04-24 14:12 | 55.94441 | -3.38891 | 117 ft | 0 kts | 57° |
| 2026-04-24 14:13 | 55.94604 | -3.38423 | 112 ft | 94 kts | 59° |
| 2026-04-24 14:14 | 55.95075 | -3.37007 | 143 ft | 166 kts | 60° |
| 2026-04-24 14:14 | 55.95740 | -3.35097 | 594 ft | 195 kts | 58° |
| 2026-04-24 14:14 | 55.97706 | -3.31064 | 2322 ft | 243 kts | 36° |
| 2026-04-24 14:15 | 55.99108 | -3.29212 | 3367 ft | 260 kts | 36° |
| 2026-04-24 14:15 | 56.00711 | -3.27477 | 4106 ft | 280 kts | 18° |
| 2026-04-24 14:15 | 56.02697 | -3.26999 | 4781 ft | 299 kts | 354° |
| 2026-04-24 14:15 | 56.04710 | -3.28033 | 5495 ft | 313 kts | 329° |
| 2026-04-24 14:16 | 56.06369 | -3.30551 | 6514 ft | 317 kts | 307° |
| 2026-04-24 14:16 | 56.07334 | -3.34104 | 7535 ft | 321 kts | 283° |
| 2026-04-24 14:16 | 56.07442 | -3.38113 | 8547 ft | 327 kts | 261° |
| 2026-04-24 14:17 | 56.05074 | -3.45083 | 10517 ft | 344 kts | 221° |
| 2026-04-24 14:17 | 56.03240 | -3.47865 | 11456 ft | 347 kts | 226° |
| 2026-04-24 14:17 | 56.00558 | -3.55012 | 13277 ft | 355 kts | 247° |
| 2026-04-24 14:18 | 55.99672 | -3.59238 | 13706 ft | 374 kts | 253° |
| 2026-04-24 14:18 | 55.98953 | -3.63780 | 14278 ft | 384 kts | 256° |
| 2026-04-24 14:18 | 55.98307 | -3.68440 | 15029 ft | 388 kts | 257° |
| 2026-04-24 14:18 | 55.97657 | -3.73148 | 15759 ft | 393 kts | 257° |
| 2026-04-24 14:19 | 55.96969 | -3.77899 | 16474 ft | 398 kts | 256° |
| 2026-04-24 14:19 | 55.96262 | -3.82711 | 17193 ft | 403 kts | 255° |
| 2026-04-24 14:19 | 55.95535 | -3.87572 | 17897 ft | 408 kts | 255° |
| 2026-04-24 14:19 | 55.94796 | -3.92486 | 18604 ft | 412 kts | 255° |
| 2026-04-24 14:20 | 55.94048 | -3.97375 | 19241 ft | 415 kts | 254° |
| 2026-04-24 14:20 | 55.92952 | -4.02143 | 19451 ft | 417 kts | 240° |
| 2026-04-24 14:20 | 55.91228 | -4.06295 | 19557 ft | 418 kts | 227° |
| 2026-04-24 14:20 | 55.88981 | -4.09572 | 19674 ft | 419 kts | 213° |
| 2026-04-24 14:21 | 55.86450 | -4.12169 | 19774 ft | 420 kts | 208° |
| 2026-04-24 14:21 | 55.83881 | -4.14680 | 19869 ft | 421 kts | 210° |
| 2026-04-24 14:21 | 55.81351 | -4.17310 | 19962 ft | 422 kts | 211° |
| 2026-04-24 14:21 | 55.78865 | -4.20073 | 19968 ft | 421 kts | 213° |
| 2026-04-24 14:22 | 55.76426 | -4.22956 | 19967 ft | 421 kts | 214° |
| 2026-04-24 14:22 | 55.74066 | -4.25910 | 19967 ft | 421 kts | 217° |
| 2026-04-24 14:22 | 55.69291 | -4.31947 | 19966 ft | 422 kts | 215° |
| 2026-04-24 14:23 | 55.66886 | -4.34910 | 19967 ft | 421 kts | 214° |
| 2026-04-24 14:23 | 55.64472 | -4.37865 | 19967 ft | 422 kts | 214° |
| 2026-04-24 14:23 | 55.62072 | -4.40861 | 19966 ft | 421 kts | 216° |
| 2026-04-24 14:23 | 55.59683 | -4.43855 | 19966 ft | 421 kts | 215° |
| 2026-04-24 14:24 | 55.57282 | -4.46842 | 19968 ft | 422 kts | 216° |
| 2026-04-24 14:24 | 55.54903 | -4.49748 | 19970 ft | 422 kts | 215° |
| 2026-04-24 14:24 | 55.52482 | -4.52688 | 19970 ft | 422 kts | 215° |
| 2026-04-24 14:24 | 55.50072 | -4.55623 | 19970 ft | 422 kts | 215° |
| 2026-04-24 14:25 | 55.47661 | -4.58577 | 19969 ft | 422 kts | 215° |
| 2026-04-24 14:25 | 55.45248 | -4.61531 | 19969 ft | 422 kts | 215° |
| 2026-04-24 14:25 | 55.42838 | -4.64476 | 19969 ft | 422 kts | 215° |
| 2026-04-24 14:25 | 55.40431 | -4.67425 | 19970 ft | 422 kts | 213° |
| 2026-04-24 14:26 | 55.38011 | -4.70339 | 19977 ft | 422 kts | 214° |
| 2026-04-24 14:26 | 55.35617 | -4.73206 | 19975 ft | 423 kts | 213° |
| 2026-04-24 14:26 | 55.33181 | -4.76084 | 19975 ft | 421 kts | 211° |
| 2026-04-24 14:26 | 55.30629 | -4.78614 | 19975 ft | 422 kts | 206° |
| 2026-04-24 14:27 | 55.27928 | -4.80615 | 19968 ft | 422 kts | 200° |
| 2026-04-24 14:27 | 55.25166 | -4.82352 | 19971 ft | 421 kts | 199° |
| 2026-04-24 14:27 | 55.22418 | -4.84096 | 19973 ft | 421 kts | 200° |
| 2026-04-24 14:27 | 55.19656 | -4.85854 | 19978 ft | 422 kts | 199° |
| 2026-04-24 14:28 | 55.16900 | -4.87612 | 19979 ft | 421 kts | 199° |
| 2026-04-24 14:28 | 55.14181 | -4.89368 | 19977 ft | 424 kts | 199° |
| 2026-04-24 14:28 | 55.11411 | -4.91147 | 19978 ft | 424 kts | 199° |
| 2026-04-24 14:28 | 55.08641 | -4.92901 | 19978 ft | 424 kts | 199° |
| 2026-04-24 14:29 | 55.05875 | -4.94653 | 19977 ft | 421 kts | 199° |
| 2026-04-24 14:29 | 55.03114 | -4.96396 | 19975 ft | 422 kts | 199° |
| 2026-04-24 14:29 | 55.00356 | -4.98139 | 19974 ft | 422 kts | 200° |
| 2026-04-24 14:29 | 54.97597 | -4.99894 | 19975 ft | 422 kts | 199° |
| 2026-04-24 14:30 | 54.95766 | -5.01050 | 19975 ft | 422 kts | 199° |
| 2026-04-24 14:30 | 54.92085 | -5.03408 | 19977 ft | 422 kts | 199° |
| 2026-04-24 14:30 | 54.89326 | -5.05152 | 19978 ft | 422 kts | 198° |
| 2026-04-24 14:30 | 54.86595 | -5.06862 | 19976 ft | 423 kts | 200° |
| 2026-04-24 14:31 | 54.83826 | -5.08605 | 19978 ft | 423 kts | 199° |
| 2026-04-24 14:31 | 54.81063 | -5.10346 | 19978 ft | 422 kts | 199° |
| 2026-04-24 14:31 | 54.78303 | -5.12090 | 19977 ft | 423 kts | 199° |
| 2026-04-24 14:31 | 54.75538 | -5.13825 | 19978 ft | 423 kts | 199° |
| 2026-04-24 14:32 | 54.72765 | -5.15535 | 19979 ft | 423 kts | 198° |
| 2026-04-24 14:32 | 54.69997 | -5.17234 | 19978 ft | 423 kts | 198° |
| 2026-04-24 14:32 | 54.67225 | -5.18942 | 19978 ft | 423 kts | 199° |
| 2026-04-24 14:32 | 54.64501 | -5.20660 | 19978 ft | 423 kts | 200° |
| 2026-04-24 14:33 | 54.61740 | -5.22425 | 19979 ft | 423 kts | 199° |
| 2026-04-24 14:33 | 54.58977 | -5.24161 | 19977 ft | 423 kts | 199° |
| 2026-04-24 14:33 | 54.56208 | -5.25873 | 19977 ft | 423 kts | 199° |
| 2026-04-24 14:33 | 54.53441 | -5.27584 | 19977 ft | 423 kts | 199° |
| 2026-04-24 14:34 | 54.50670 | -5.29283 | 19977 ft | 423 kts | 198° |
| 2026-04-24 14:34 | 54.47938 | -5.31148 | 19978 ft | 423 kts | 204° |
| 2026-04-24 14:34 | 54.45290 | -5.33367 | 19978 ft | 423 kts | 205° |
| 2026-04-24 14:34 | 54.42681 | -5.35577 | 19977 ft | 423 kts | 205° |
| 2026-04-24 14:35 | 54.40057 | -5.37817 | 19975 ft | 421 kts | 205° |
| 2026-04-24 14:35 | 54.37439 | -5.40066 | 19975 ft | 421 kts | 205° |
| 2026-04-24 14:35 | 54.34794 | -5.42294 | 19975 ft | 424 kts | 204° |
| 2026-04-24 14:35 | 54.32148 | -5.44507 | 19975 ft | 423 kts | 205° |
| 2026-04-24 14:36 | 54.29511 | -5.46748 | 19975 ft | 423 kts | 204° |
| 2026-04-24 14:36 | 54.26866 | -5.48958 | 19975 ft | 423 kts | 205° |
| 2026-04-24 14:36 | 54.24219 | -5.51159 | 19975 ft | 423 kts | 204° |
| 2026-04-24 14:36 | 54.21576 | -5.53372 | 19972 ft | 423 kts | 204° |
| 2026-04-24 14:37 | 54.18963 | -5.55546 | 19974 ft | 423 kts | 204° |
| 2026-04-24 14:37 | 54.16322 | -5.57755 | 19972 ft | 423 kts | 205° |
| 2026-04-24 14:37 | 54.13677 | -5.59964 | 19972 ft | 423 kts | 204° |
| 2026-04-24 14:37 | 54.11032 | -5.62163 | 19980 ft | 423 kts | 205° |
| 2026-04-24 14:38 | 54.08387 | -5.64388 | 19970 ft | 424 kts | 204° |
| 2026-04-24 14:38 | 54.05736 | -5.66585 | 19969 ft | 424 kts | 205° |
| 2026-04-24 14:38 | 54.03087 | -5.68798 | 19969 ft | 424 kts | 204° |
| 2026-04-24 14:38 | 54.00440 | -5.71006 | 19969 ft | 424 kts | 204° |
| 2026-04-24 14:39 | 53.97793 | -5.73207 | 19972 ft | 424 kts | 206° |
| 2026-04-24 14:39 | 53.95284 | -5.75729 | 19971 ft | 426 kts | 213° |
| 2026-04-24 14:39 | 53.92879 | -5.78660 | 19969 ft | 426 kts | 215° |
| 2026-04-24 14:39 | 53.90479 | -5.81625 | 19968 ft | 426 kts | 215° |
| 2026-04-24 14:40 | 53.88088 | -5.84586 | 19968 ft | 426 kts | 213° |
| 2026-04-24 14:40 | 53.85677 | -5.87508 | 19965 ft | 426 kts | 213° |
| 2026-04-24 14:40 | 53.83267 | -5.90417 | 19966 ft | 425 kts | 213° |
| 2026-04-24 14:40 | 53.80867 | -5.93353 | 19965 ft | 426 kts | 214° |
| 2026-04-24 14:41 | 53.78470 | -5.96299 | 19963 ft | 426 kts | 214° |
| 2026-04-24 14:41 | 53.76104 | -5.99184 | 19965 ft | 426 kts | 214° |
| 2026-04-24 14:41 | 53.73697 | -6.02100 | 19966 ft | 426 kts | 213° |
| 2026-04-24 14:41 | 53.71287 | -6.04997 | 19966 ft | 426 kts | 214° |
| 2026-04-24 14:42 | 53.68884 | -6.07925 | 19963 ft | 426 kts | 215° |
| 2026-04-24 14:42 | 53.66485 | -6.10852 | 19964 ft | 426 kts | 213° |
| 2026-04-24 14:42 | 53.64070 | -6.13738 | 19963 ft | 426 kts | 214° |
| 2026-04-24 14:42 | 53.61661 | -6.16645 | 19963 ft | 426 kts | 214° |
| 2026-04-24 14:43 | 53.59251 | -6.19530 | 19964 ft | 426 kts | 213° |
| 2026-04-24 14:43 | 53.56828 | -6.22400 | 19959 ft | 426 kts | 213° |
| 2026-04-24 14:43 | 53.54462 | -6.25251 | 19959 ft | 424 kts | 214° |
| 2026-04-24 14:43 | 53.52075 | -6.28160 | 19964 ft | 424 kts | 213° |
| 2026-04-24 14:44 | 53.49672 | -6.31027 | 19959 ft | 424 kts | 213° |
| 2026-04-24 14:44 | 53.47304 | -6.33973 | 19958 ft | 424 kts | 216° |
| 2026-04-24 14:44 | 53.44978 | -6.37032 | 19959 ft | 425 kts | 216° |
| 2026-04-24 14:44 | 53.42652 | -6.40090 | 19968 ft | 424 kts | 215° |
| 2026-04-24 14:45 | 53.40322 | -6.43124 | 19968 ft | 424 kts | 216° |
| 2026-04-24 14:45 | 53.38013 | -6.46154 | 19940 ft | 414 kts | 215° |
| 2026-04-24 14:45 | 53.35826 | -6.48985 | 19877 ft | 394 kts | 216° |
| 2026-04-24 14:45 | 53.33698 | -6.51749 | 19581 ft | 381 kts | 214° |
| 2026-04-24 14:46 | 53.31628 | -6.54419 | 19251 ft | 371 kts | 214° |
| 2026-04-24 14:46 | 53.29602 | -6.57030 | 18926 ft | 367 kts | 214° |
| 2026-04-24 14:46 | 53.27570 | -6.59637 | 18588 ft | 369 kts | 214° |
| 2026-04-24 14:46 | 53.25535 | -6.62238 | 18214 ft | 367 kts | 214° |
| 2026-04-24 14:47 | 53.23528 | -6.64833 | 17835 ft | 364 kts | 215° |
| 2026-04-24 14:47 | 53.21561 | -6.67370 | 17492 ft | 360 kts | 214° |
| 2026-04-24 14:47 | 53.19590 | -6.69898 | 17123 ft | 356 kts | 214° |
| 2026-04-24 14:47 | 53.17629 | -6.72403 | 16762 ft | 355 kts | 214° |
| 2026-04-24 14:48 | 53.15673 | -6.74887 | 16394 ft | 353 kts | 213° |
| 2026-04-24 14:48 | 53.13725 | -6.77352 | 16037 ft | 350 kts | 214° |
| 2026-04-24 14:48 | 53.11803 | -6.79829 | 15687 ft | 348 kts | 213° |
| 2026-04-24 14:48 | 53.09880 | -6.82262 | 15348 ft | 346 kts | 214° |
| 2026-04-24 14:49 | 53.07974 | -6.84694 | 15002 ft | 344 kts | 213° |
| 2026-04-24 14:49 | 53.06068 | -6.87087 | 14663 ft | 343 kts | 213° |
| 2026-04-24 14:49 | 53.04170 | -6.89468 | 14335 ft | 341 kts | 213° |
| 2026-04-24 14:49 | 53.02314 | -6.91802 | 14098 ft | 337 kts | 213° |
| 2026-04-24 14:50 | 53.00450 | -6.94173 | 14005 ft | 338 kts | 213° |
| 2026-04-24 14:50 | 52.98574 | -6.96528 | 13923 ft | 338 kts | 214° |
| 2026-04-24 14:50 | 52.96701 | -6.98891 | 13915 ft | 338 kts | 214° |
| 2026-04-24 14:50 | 52.94836 | -7.01261 | 13911 ft | 338 kts | 214° |
| 2026-04-24 14:51 | 52.92957 | -7.03620 | 13919 ft | 339 kts | 213° |
| 2026-04-24 14:51 | 52.91080 | -7.05971 | 13912 ft | 338 kts | 213° |
| 2026-04-24 14:51 | 52.89208 | -7.08336 | 13915 ft | 339 kts | 214° |
| 2026-04-24 14:51 | 52.87336 | -7.10695 | 13907 ft | 337 kts | 213° |
| 2026-04-24 14:52 | 52.85467 | -7.13017 | 13908 ft | 337 kts | 213° |
| 2026-04-24 14:52 | 52.83619 | -7.15314 | 13905 ft | 337 kts | 214° |
| 2026-04-24 14:52 | 52.81751 | -7.17665 | 13906 ft | 337 kts | 213° |
| 2026-04-24 14:52 | 52.79881 | -7.19989 | 13907 ft | 337 kts | 212° |
| 2026-04-24 14:53 | 52.78003 | -7.22307 | 13911 ft | 338 kts | 214° |
| 2026-04-24 14:53 | 52.76134 | -7.24656 | 13908 ft | 338 kts | 214° |
| 2026-04-24 14:53 | 52.74269 | -7.27004 | 13900 ft | 337 kts | 213° |
| 2026-04-24 14:53 | 52.72396 | -7.29337 | 13901 ft | 338 kts | 213° |
| 2026-04-24 14:54 | 52.70522 | -7.31660 | 13901 ft | 337 kts | 214° |
| 2026-04-24 14:54 | 52.68667 | -7.33950 | 13900 ft | 337 kts | 213° |
| 2026-04-24 14:54 | 52.66790 | -7.36268 | 13902 ft | 337 kts | 213° |
| 2026-04-24 14:54 | 52.64920 | -7.38600 | 13902 ft | 337 kts | 214° |
| 2026-04-24 14:55 | 52.63678 | -7.40139 | 13901 ft | 337 kts | 213° |
| 2026-04-24 14:55 | 52.61160 | -7.43220 | 13894 ft | 337 kts | 213° |
| 2026-04-24 14:55 | 52.59283 | -7.45535 | 13893 ft | 337 kts | 214° |
| 2026-04-24 14:55 | 52.57413 | -7.47868 | 13893 ft | 337 kts | 214° |
| 2026-04-24 14:56 | 52.55541 | -7.50197 | 13881 ft | 338 kts | 213° |
| 2026-04-24 14:56 | 52.53693 | -7.52470 | 13889 ft | 335 kts | 212° |
| 2026-04-24 14:56 | 52.51785 | -7.54778 | 13899 ft | 351 kts | 212° |
| 2026-04-24 14:56 | 52.49813 | -7.57180 | 13875 ft | 348 kts | 213° |
| 2026-04-24 14:57 | 52.47910 | -7.59514 | 13621 ft | 336 kts | 214° |
| 2026-04-24 14:57 | 52.46056 | -7.61795 | 13196 ft | 330 kts | 213° |
| 2026-04-24 14:57 | 52.44233 | -7.64045 | 12788 ft | 328 kts | 213° |
| 2026-04-24 14:57 | 52.42406 | -7.66278 | 12375 ft | 327 kts | 213° |
| 2026-04-24 14:58 | 52.40655 | -7.68605 | 11965 ft | 325 kts | 224° |
| 2026-04-24 14:58 | 52.39289 | -7.71529 | 11582 ft | 329 kts | 231° |
| 2026-04-24 14:58 | 52.37973 | -7.74578 | 11200 ft | 326 kts | 231° |
| 2026-04-24 14:58 | 52.36679 | -7.77589 | 10787 ft | 322 kts | 230° |
| 2026-04-24 14:59 | 52.35373 | -7.80585 | 10398 ft | 323 kts | 231° |
| 2026-04-24 14:59 | 52.34083 | -7.83563 | 10014 ft | 319 kts | 230° |
| 2026-04-24 14:59 | 52.32795 | -7.86503 | 9594 ft | 319 kts | 230° |
| 2026-04-24 14:59 | 52.31501 | -7.89443 | 9174 ft | 317 kts | 230° |
| 2026-04-24 15:00 | 52.30223 | -7.92359 | 8767 ft | 313 kts | 230° |
| 2026-04-24 15:00 | 52.28946 | -7.95251 | 8366 ft | 315 kts | 231° |
| 2026-04-24 15:00 | 52.27697 | -7.98112 | 7969 ft | 312 kts | 230° |
| 2026-04-24 15:00 | 52.26438 | -8.00976 | 7557 ft | 310 kts | 230° |
| 2026-04-24 15:01 | 52.25182 | -8.03846 | 7176 ft | 311 kts | 229° |
| 2026-04-24 15:01 | 52.23923 | -8.06697 | 6790 ft | 308 kts | 230° |
| 2026-04-24 15:01 | 52.22672 | -8.09532 | 6397 ft | 306 kts | 230° |
| 2026-04-24 15:01 | 52.21436 | -8.12338 | 5978 ft | 303 kts | 230° |
| 2026-04-24 15:02 | 52.20218 | -8.15107 | 5569 ft | 298 kts | 229° |
| 2026-04-24 15:02 | 52.19032 | -8.17797 | 5184 ft | 294 kts | 229° |
| 2026-04-24 15:02 | 52.17840 | -8.20476 | 4775 ft | 290 kts | 230° |
| 2026-04-24 15:02 | 52.16671 | -8.23133 | 4362 ft | 287 kts | 229° |
| 2026-04-24 15:03 | 52.15505 | -8.25748 | 3954 ft | 284 kts | 230° |
| 2026-04-24 15:03 | 52.14351 | -8.28343 | 3555 ft | 282 kts | 229° |
| 2026-04-24 15:03 | 52.13203 | -8.30911 | 3137 ft | 279 kts | 228° |
| 2026-04-24 15:03 | 52.12091 | -8.33397 | 3016 ft | 265 kts | 229° |
| 2026-04-24 15:04 | 52.11046 | -8.35775 | 2922 ft | 252 kts | 228° |
| 2026-04-24 15:04 | 52.10046 | -8.38039 | 2864 ft | 239 kts | 229° |
| 2026-04-24 15:04 | 52.09102 | -8.40177 | 2862 ft | 227 kts | 228° |
| 2026-04-24 15:04 | 52.08212 | -8.42187 | 2858 ft | 217 kts | 227° |
| 2026-04-24 15:05 | 52.07510 | -8.44331 | 2838 ft | 214 kts | 242° |
| 2026-04-24 15:05 | 52.07003 | -8.46604 | 2839 ft | 217 kts | 243° |
| 2026-04-24 15:05 | 52.06476 | -8.48901 | 2747 ft | 217 kts | 243° |
| 2026-04-24 15:05 | 52.05944 | -8.51234 | 2421 ft | 224 kts | 244° |
| 2026-04-24 15:06 | 52.05396 | -8.53655 | 2069 ft | 230 kts | 243° |
| 2026-04-24 15:06 | 52.04856 | -8.56048 | 1963 ft | 222 kts | 243° |
| 2026-04-24 15:06 | 52.04251 | -8.58278 | 1850 ft | 207 kts | 224° |
| 2026-04-24 15:06 | 52.03213 | -8.59545 | 1849 ft | 177 kts | 192° |
| 2026-04-24 15:07 | 52.02099 | -8.59726 | 1838 ft | 150 kts | 164° |
| 2026-04-24 15:07 | 52.01166 | -8.59211 | 1864 ft | 145 kts | 154° |
| 2026-04-24 15:07 | 52.00233 | -8.58634 | 1849 ft | 142 kts | 156° |
| 2026-04-24 15:07 | 51.99313 | -8.58099 | 1865 ft | 140 kts | 155° |
| 2026-04-24 15:08 | 51.98419 | -8.57575 | 1848 ft | 132 kts | 155° |
| 2026-04-24 15:08 | 51.97524 | -8.57047 | 1857 ft | 138 kts | 155° |
| 2026-04-24 15:08 | 51.96631 | -8.56518 | 1857 ft | 137 kts | 156° |
| 2026-04-24 15:08 | 51.95788 | -8.56032 | 1852 ft | 122 kts | 155° |
| 2026-04-24 15:09 | 51.95007 | -8.55559 | 1862 ft | 122 kts | 155° |
| 2026-04-24 15:09 | 51.94206 | -8.55079 | 1867 ft | 129 kts | 155° |
| 2026-04-24 15:09 | 51.93356 | -8.54564 | 1862 ft | 131 kts | 155° |
| 2026-04-24 15:09 | 51.92493 | -8.54058 | 1852 ft | 132 kts | 156° |
| 2026-04-24 15:10 | 51.91653 | -8.53570 | 1847 ft | 120 kts | 156° |
| 2026-04-24 15:10 | 51.90880 | -8.53132 | 1592 ft | 114 kts | 156° |
| 2026-04-24 15:10 | 51.90108 | -8.52701 | 1443 ft | 123 kts | 155° |
| 2026-04-24 15:10 | 51.89319 | -8.52267 | 1431 ft | 119 kts | 155° |
| 2026-04-24 15:11 | 51.88573 | -8.51784 | 1276 ft | 116 kts | 152° |
| 2026-04-24 15:11 | 51.87823 | -8.51346 | 1116 ft | 113 kts | 152° |
| 2026-04-24 15:11 | 51.87083 | -8.50867 | 994 ft | 119 kts | 152° |
| 2026-04-24 15:11 | 51.86284 | -8.50396 | 816 ft | 121 kts | 153° |
| 2026-04-24 15:12 | 51.85520 | -8.49951 | 618 ft | 113 kts | 151° |
| 2026-04-24 15:12 | 51.84273 | -8.49190 | 504 ft | 23 kts | 164° |
| 2026-04-24 15:12 | 51.84223 | -8.49161 | 504 ft | 0 kts | 159° |
| 2026-04-24 15:13 | 51.84209 | -8.49152 | 504 ft | 11 kts | 160° |
| 2026-04-24 15:13 | 51.84093 | -8.49090 | 504 ft | 23 kts | 159° |
| 2026-04-24 15:13 | 51.83933 | -8.48987 | 504 ft | 27 kts | 160° |
| 2026-04-24 15:13 | 51.83746 | -8.48881 | 504 ft | 30 kts | 161° |
| 2026-04-24 15:14 | 51.83589 | -8.48790 | 504 ft | 11 kts | 159° |
| 2026-04-24 15:14 | 51.83503 | -8.48738 | 504 ft | 15 kts | 161° |
| 2026-04-24 15:14 | 51.83394 | -8.48676 | 504 ft | 18 kts | 160° |
| 2026-04-24 15:14 | 51.83295 | -8.48566 | 504 ft | 16 kts | 118° |
| 2026-04-24 15:15 | 51.83263 | -8.48570 | 504 ft | 7 kts | 279° |
| 2026-04-24 15:15 | 51.83310 | -8.48624 | 504 ft | 11 kts | 339° |
| 2026-04-24 15:15 | 51.83411 | -8.48684 | 504 ft | 20 kts | 341° |
| 2026-04-24 15:15 | 51.83568 | -8.48778 | 504 ft | 27 kts | 343° |
| 2026-04-24 15:16 | 51.83731 | -8.48877 | 504 ft | 26 kts | 341° |
| 2026-04-24 15:16 | 51.83909 | -8.48981 | 504 ft | 30 kts | 340° |
| 2026-04-24 15:16 | 51.84125 | -8.49103 | 505 ft | 36 kts | 339° |
| 2026-04-24 15:16 | 51.84371 | -8.49254 | 504 ft | 40 kts | 340° |
| 2026-04-24 15:17 | 51.84590 | -8.49399 | 504 ft | 22 kts | 338° |
| 2026-04-24 15:17 | 51.84726 | -8.49465 | 504 ft | 18 kts | 357° |
| 2026-04-24 15:17 | 51.84779 | -8.49396 | 504 ft | 0 kts | 69° |
| 2026-04-24 15:17 | 51.84779 | -8.49393 | 504 ft | 2 kts | 69° |
| 2026-04-24 15:18 | 51.84789 | -8.49353 | 504 ft | 6 kts | 69° |
| 2026-04-24 15:18 | 51.84809 | -8.49270 | 504 ft | 10 kts | 65° |
| 2026-04-24 15:18 | 51.84851 | -8.49219 | 504 ft | 5 kts | 36° |
| 2026-04-24 15:18 | 51.84875 | -8.49154 | 504 ft | 6 kts | 70° |
| 2026-04-24 15:19 | 51.84888 | -8.49092 | 504 ft | 2 kts | 71° |
| 2026-04-24 15:19 | 51.84895 | -8.49060 | 504 ft | 0 kts | 70° |